createdAt,value
2023-02-18T00:01:30.061Z,100393.41
2023-02-18T00:04:00.460Z,100402.75
2023-02-18T00:06:29.497Z,100399.91
2023-02-18T00:08:58.818Z,100406.25
2023-02-18T00:11:26.986Z,100404.09
2023-02-18T00:13:56.088Z,100402.44
2023-02-18T00:16:24.350Z,100410.00
2023-02-18T00:18:52.127Z,100402.06
2023-02-18T00:21:20.985Z,100404.00
2023-02-18T00:23:48.459Z,100397.19
2023-02-18T00:26:17.931Z,100408.44
2023-02-18T00:28:46.354Z,100397.50
2023-02-18T00:31:16.020Z,100394.19
2023-02-18T00:33:43.935Z,100388.78
2023-02-18T00:36:14.156Z,100387.84
2023-02-18T00:38:46.053Z,100380.75
2023-02-18T00:41:13.626Z,100374.66
2023-02-18T00:43:41.067Z,100367.09
2023-02-18T00:46:09.111Z,100354.81
2023-02-18T00:48:37.561Z,100355.19
2023-02-18T00:51:06.635Z,100365.25
2023-02-18T00:53:35.117Z,100365.50
2023-02-18T00:56:04.806Z,100372.88
2023-02-18T00:58:32.538Z,100361.28
2023-02-18T01:01:00.357Z,100356.88
2023-02-18T01:03:28.033Z,100347.19
2023-02-18T01:05:55.594Z,100341.69
2023-02-18T01:08:23.388Z,100350.50
2023-02-18T01:10:54.758Z,100343.44
2023-02-18T01:13:24.796Z,100340.09
2023-02-18T01:15:52.397Z,100339.16
2023-02-18T01:18:20.316Z,100330.91
2023-02-18T01:20:48.938Z,100337.94
2023-02-18T01:23:16.884Z,100337.72
2023-02-18T01:25:44.378Z,100347.50
2023-02-18T01:28:14.525Z,100352.84
2023-02-18T01:30:43.788Z,100339.78
2023-02-18T01:33:11.914Z,100334.53
2023-02-18T01:35:40.155Z,100343.44
2023-02-18T01:38:08.059Z,100334.38
2023-02-18T01:40:36.002Z,100329.19
2023-02-18T01:43:03.895Z,100318.69
2023-02-18T01:45:59.850Z,100321.13
2023-02-18T01:48:31.303Z,100319.97
2023-02-18T01:51:03.319Z,100315.41
2023-02-18T01:53:38.586Z,100308.56
2023-02-18T01:56:07.814Z,100310.59
2023-02-18T01:58:35.765Z,100315.72
2023-02-18T02:01:05.212Z,100306.19
2023-02-18T02:03:32.760Z,100306.97
2023-02-18T02:06:00.256Z,100304.75
2023-02-18T02:08:28.792Z,100303.53
2023-02-18T02:11:12.703Z,100314.19
2023-02-18T02:17:40.656Z,100311.47
2023-02-18T02:20:46.166Z,100306.88
2023-02-18T02:23:43.750Z,100295.94
2023-02-18T02:26:51.876Z,100302.03
2023-02-18T02:29:48.747Z,100303.13
2023-02-18T02:33:01.556Z,100292.66
2023-02-18T02:35:33.148Z,100290.25
2023-02-18T02:38:08.579Z,100283.81
2023-02-18T02:40:45.337Z,100286.13
2023-02-18T02:43:20.772Z,100277.81
2023-02-18T02:45:55.444Z,100279.91
2023-02-18T02:48:29.955Z,100275.09
2023-02-18T02:51:06.269Z,100265.63
2023-02-18T02:53:37.478Z,100271.53
2023-02-18T02:56:05.395Z,100267.34
2023-02-18T02:58:33.136Z,100279.22
2023-02-18T03:01:16.358Z,100266.28
2023-02-18T03:04:20.306Z,100267.34
2023-02-18T03:07:15.011Z,100265.59
2023-02-18T03:10:04.417Z,100265.28
2023-02-18T03:12:37.193Z,100253.88
2023-02-18T03:15:09.198Z,100247.16
2023-02-18T03:17:42.389Z,100245.50
2023-02-18T03:20:15.751Z,100223.91
2023-02-18T03:22:50.952Z,100225.34
2023-02-18T03:25:19.139Z,100220.41
2023-02-18T03:27:51.788Z,100214.28
2023-02-18T03:30:25.416Z,100211.38
2023-02-18T03:32:57.135Z,100197.97
2023-02-18T03:35:26.043Z,100201.25
2023-02-18T03:38:01.032Z,100201.09
2023-02-18T03:40:28.960Z,100187.44
2023-02-18T03:42:58.035Z,100190.31
2023-02-18T03:45:25.657Z,100185.53
2023-02-18T03:47:53.628Z,100199.25
2023-02-18T03:50:21.491Z,100188.94
2023-02-18T03:52:49.256Z,100186.00
2023-02-18T03:55:18.226Z,100186.97
2023-02-18T03:57:45.735Z,100180.94
2023-02-18T04:00:14.061Z,100180.31
2023-02-18T04:02:42.166Z,100184.38
2023-02-18T04:05:11.400Z,100180.69
2023-02-18T04:07:38.952Z,100182.50
2023-02-18T04:10:08.365Z,100175.38
2023-02-18T04:12:37.187Z,100172.72
2023-02-18T04:15:05.245Z,100157.59
2023-02-18T04:17:33.820Z,100163.13
2023-02-18T04:20:01.411Z,100158.19
2023-02-18T04:22:28.923Z,100162.38
2023-02-18T04:24:56.426Z,100152.34
2023-02-18T04:27:23.938Z,100148.78
2023-02-18T04:29:52.974Z,100152.94
2023-02-18T04:32:20.492Z,100153.66
2023-02-18T04:34:48.220Z,100150.59
2023-02-18T04:37:15.779Z,100147.59
2023-02-18T04:39:43.540Z,100145.41
2023-02-18T04:42:11.123Z,100147.41
2023-02-18T04:44:38.995Z,100135.66
2023-02-18T04:47:08.517Z,100144.03
2023-02-18T04:49:36.291Z,100124.06
2023-02-18T04:52:07.290Z,100114.75
2023-02-18T04:54:34.788Z,100116.81
2023-02-18T04:57:02.274Z,100113.69
2023-02-18T04:59:29.733Z,100108.09
2023-02-18T05:01:57.251Z,100108.22
2023-02-18T05:04:26.194Z,100116.22
2023-02-18T05:06:53.791Z,100101.44
2023-02-18T05:09:21.315Z,100103.22
2023-02-18T05:11:48.854Z,100097.50
2023-02-18T05:14:17.056Z,100093.28
2023-02-18T05:16:44.548Z,100090.94
2023-02-18T05:19:16.192Z,100084.25
2023-02-18T05:21:45.411Z,100090.47
2023-02-18T05:24:13.015Z,100089.31
2023-02-18T05:26:40.576Z,100078.91
2023-02-18T05:29:08.070Z,100066.22
2023-02-18T05:31:35.869Z,100070.38
2023-02-18T05:34:03.492Z,100074.22
2023-02-18T05:36:30.949Z,100068.56
2023-02-18T05:38:59.781Z,100058.44
2023-02-18T05:41:27.279Z,100056.94
2023-02-18T05:44:12.748Z,100054.97
2023-02-18T05:46:40.308Z,100051.38
2023-02-18T05:49:07.819Z,100035.84
2023-02-18T05:51:35.357Z,100038.69
2023-02-18T05:54:04.439Z,100041.84
2023-02-18T05:56:31.965Z,100029.03
2023-02-18T05:58:59.465Z,100034.75
2023-02-18T06:01:27.070Z,100027.50
2023-02-18T06:03:54.541Z,100018.50
2023-02-18T06:06:22.115Z,100032.47
2023-02-18T06:08:49.555Z,100034.84
2023-02-18T06:11:18.336Z,100023.03
2023-02-18T06:13:45.810Z,100021.88
2023-02-18T06:16:13.428Z,100036.75
2023-02-18T06:18:41.040Z,100031.22
2023-02-18T06:21:08.760Z,100027.41
2023-02-18T06:23:36.247Z,100024.69
2023-02-18T06:26:03.874Z,100024.47
2023-02-18T06:28:32.716Z,100023.81
2023-02-18T06:31:00.450Z,100010.44
2023-02-18T06:33:28.064Z,100002.97
2023-02-18T06:35:57.435Z,100018.56
2023-02-18T06:38:25.228Z,100010.56
2023-02-18T06:40:53.377Z,100008.31
2023-02-18T06:43:23.074Z,99994.44
2023-02-18T06:45:52.328Z,100010.84
2023-02-18T06:48:20.125Z,100010.03
2023-02-18T06:50:47.604Z,100023.81
2023-02-18T06:53:16.953Z,100015.97
2023-02-18T06:55:44.580Z,100015.25
2023-02-18T06:58:12.934Z,100014.19
2023-02-18T07:00:40.975Z,100012.88
2023-02-18T07:03:12.012Z,100020.69
2023-02-18T07:05:39.496Z,100016.47
2023-02-18T07:08:07.024Z,100020.69
2023-02-18T07:10:34.584Z,100013.16
2023-02-18T07:13:02.057Z,100005.00
2023-02-18T07:15:29.891Z,100000.78
2023-02-18T07:17:57.429Z,100004.47
2023-02-18T07:20:27.114Z,100003.94
2023-02-18T07:22:55.854Z,100003.22
2023-02-18T07:25:23.573Z,99994.03
2023-02-18T07:27:51.112Z,100007.72
2023-02-18T07:30:18.747Z,100011.53
2023-02-18T07:32:46.337Z,100004.41
2023-02-18T07:35:16.586Z,100013.19
2023-02-18T07:37:46.790Z,100015.13
2023-02-18T07:40:16.595Z,100022.50
2023-02-18T07:42:44.368Z,100028.84
2023-02-18T07:45:12.671Z,100023.84
2023-02-18T07:47:41.471Z,100032.63
2023-02-18T07:50:10.957Z,100036.22
2023-02-18T07:52:38.446Z,100035.25
2023-02-18T07:55:08.031Z,100026.03
2023-02-18T07:57:55.677Z,100027.25
2023-02-18T08:00:23.646Z,100025.75
2023-02-18T08:02:51.114Z,100028.38
2023-02-18T08:05:18.669Z,100029.50
2023-02-18T08:07:46.312Z,100038.72
2023-02-18T08:10:15.134Z,100038.81
2023-02-18T08:12:42.628Z,100060.19
2023-02-18T08:15:13.372Z,100050.22
2023-02-18T08:17:40.839Z,100059.59
2023-02-18T08:20:09.952Z,100053.50
2023-02-18T08:22:37.798Z,100058.31
2023-02-18T08:25:05.935Z,100047.00
2023-02-18T08:27:34.759Z,100041.72
2023-02-18T08:30:02.245Z,100048.59
2023-02-18T08:32:30.089Z,100056.44
2023-02-18T08:34:57.796Z,100056.38
2023-02-18T08:37:25.530Z,100063.38
2023-02-18T08:39:53.151Z,100056.38
2023-02-18T08:42:20.793Z,100064.50
2023-02-18T08:44:49.648Z,100065.09
2023-02-18T08:48:17.727Z,100066.03
2023-02-18T08:50:04.858Z,100064.16
2023-02-18T08:52:32.349Z,100060.44
2023-02-18T08:54:59.818Z,100059.38
2023-02-18T08:57:28.704Z,100049.75
2023-02-18T08:59:57.545Z,100059.78
2023-02-18T09:02:25.060Z,100055.63
2023-02-18T09:04:53.408Z,100060.19
2023-02-18T09:07:20.895Z,100052.28
2023-02-18T09:09:48.359Z,100043.16
2023-02-18T09:12:15.887Z,100053.53
2023-02-18T09:14:43.377Z,100050.47
2023-02-18T09:17:12.187Z,100053.78
2023-02-18T09:19:39.659Z,100041.06
2023-02-18T09:22:07.298Z,100042.94
2023-02-18T09:24:39.033Z,100046.38
2023-02-18T09:27:06.634Z,100053.16
2023-02-18T09:29:34.941Z,100042.50
2023-02-18T09:32:02.499Z,100047.31
2023-02-18T09:34:31.785Z,100054.53
2023-02-18T09:36:59.305Z,100054.53
2023-02-18T09:39:27.038Z,100057.75
2023-02-18T09:41:56.712Z,100055.63
2023-02-18T09:44:26.906Z,100058.03
2023-02-18T09:46:58.681Z,100050.00
2023-02-18T09:49:28.723Z,100053.03
2023-02-18T09:52:08.205Z,100046.38
2023-02-18T09:54:35.726Z,100049.75
2023-02-18T09:57:04.181Z,100035.22
2023-02-18T09:59:32.358Z,100030.88
2023-02-18T10:02:02.407Z,100044.63
2023-02-18T10:04:41.006Z,100048.31
2023-02-18T10:07:20.648Z,100053.91
2023-02-18T10:09:50.341Z,100055.31
2023-02-18T10:12:20.890Z,100057.84
2023-02-18T10:14:51.934Z,100034.91
2023-02-18T10:17:21.996Z,100036.75
2023-02-18T10:19:50.768Z,100045.13
2023-02-18T10:22:21.310Z,100036.84
2023-02-18T10:24:53.182Z,100034.59
2023-02-18T10:27:25.724Z,100032.88
2023-02-18T10:29:53.839Z,100051.81
2023-02-18T10:32:24.816Z,100049.03
2023-02-18T10:35:00.365Z,100047.13
2023-02-18T10:37:48.769Z,100053.47
2023-02-18T10:40:24.417Z,100050.28
2023-02-18T10:43:04.555Z,100041.16
2023-02-18T10:45:44.024Z,100046.72
2023-02-18T10:48:29.222Z,100062.91
2023-02-18T10:50:57.450Z,100065.41
2023-02-18T10:53:33.972Z,100060.19
2023-02-18T10:56:01.849Z,100072.84
2023-02-18T10:58:33.843Z,100061.53
2023-02-18T11:01:08.689Z,100062.88
2023-02-18T11:03:42.555Z,100074.94
2023-02-18T11:06:18.502Z,100075.91
2023-02-18T11:08:48.867Z,100079.41
2023-02-18T11:11:21.802Z,100078.22
2023-02-18T11:13:54.262Z,100078.41
2023-02-18T11:16:23.258Z,100088.53
2023-02-18T11:18:50.971Z,100077.53
2023-02-18T11:21:26.969Z,100078.75
2023-02-18T11:23:57.141Z,100076.91
2023-02-18T11:26:30.689Z,100087.97
2023-02-18T11:29:03.806Z,100084.03
2023-02-18T11:31:41.771Z,100070.84
2023-02-18T11:34:17.377Z,100075.25
2023-02-18T11:36:45.894Z,100087.00
2023-02-18T11:39:23.192Z,100073.81
2023-02-18T11:41:57.172Z,100076.41
2023-02-18T11:44:29.719Z,100071.09
2023-02-18T11:47:00.075Z,100072.75
2023-02-18T11:49:29.704Z,100069.75
2023-02-18T11:52:05.591Z,100061.34
2023-02-18T11:54:35.966Z,100068.41
2023-02-18T11:57:06.042Z,100074.44
2023-02-18T11:59:35.780Z,100063.25
2023-02-18T12:02:13.553Z,100066.69
2023-02-18T12:04:46.401Z,100075.41
2023-02-18T12:07:21.100Z,100076.91
2023-02-18T12:09:52.711Z,100071.91
2023-02-18T12:12:27.247Z,100071.59
2023-02-18T12:14:56.522Z,100075.25
2023-02-18T12:17:43.377Z,100073.25
2023-02-18T12:20:27.700Z,100064.28
2023-02-18T12:23:03.572Z,100071.47
2023-02-18T12:25:40.368Z,100072.34
2023-02-18T12:28:24.043Z,100073.41
2023-02-18T12:31:18.041Z,100067.94
2023-02-18T12:33:58.271Z,100074.06
2023-02-18T12:36:34.788Z,100075.31
2023-02-18T12:39:13.039Z,100073.09
2023-02-18T12:41:54.676Z,100070.06
2023-02-18T12:44:34.989Z,100066.56
2023-02-18T12:47:31.072Z,100069.63
2023-02-18T12:50:15.138Z,100062.59
2023-02-18T12:52:53.128Z,100062.44
2023-02-18T12:55:45.397Z,100062.78
2023-02-18T12:58:29.563Z,100068.84
2023-02-18T13:01:32.571Z,100061.09
2023-02-18T13:04:26.998Z,100068.75
2023-02-18T13:07:14.379Z,100068.34
2023-02-18T13:09:55.674Z,100067.34
2023-02-18T13:12:31.955Z,100059.16
2023-02-18T13:15:05.738Z,100062.50
2023-02-18T13:17:38.499Z,100067.97
2023-02-18T13:20:10.852Z,100063.16
2023-02-18T13:22:39.248Z,100058.31
2023-02-18T13:25:14.020Z,100066.66
2023-02-18T13:27:46.782Z,100063.66
2023-02-18T13:30:26.804Z,100057.09
2023-02-18T13:33:10.809Z,100048.88
2023-02-18T13:35:43.494Z,100042.47
2023-02-18T13:38:30.782Z,100043.63
2023-02-18T13:41:00.488Z,100051.78
2023-02-18T13:43:32.459Z,100045.94
2023-02-18T13:46:08.915Z,100048.19
2023-02-18T13:48:43.728Z,100042.25
2023-02-18T13:51:13.513Z,100047.63
2023-02-18T13:53:44.626Z,100051.03
2023-02-18T13:56:22.392Z,100045.63
2023-02-18T13:58:51.909Z,100050.19
2023-02-18T14:01:38.280Z,100049.72
2023-02-18T14:04:36.736Z,100042.00
2023-02-18T14:07:40.105Z,100045.28
2023-02-18T14:10:27.465Z,100043.22
2023-02-18T14:13:24.931Z,100038.22
2023-02-18T14:16:00.131Z,100043.72
2023-02-18T14:18:31.827Z,100042.72
2023-02-18T14:21:23.660Z,100052.97
2023-02-18T14:24:00.541Z,100051.63
2023-02-18T14:26:37.785Z,100047.91
2023-02-18T14:29:13.824Z,100047.22
2023-02-18T14:31:52.230Z,100058.91
2023-02-18T14:34:52.186Z,100059.91
2023-02-18T14:37:36.483Z,100056.41
2023-02-18T14:40:22.051Z,100060.56
2023-02-18T14:42:57.371Z,100047.28
2023-02-18T14:45:36.368Z,100061.34
2023-02-18T14:48:23.751Z,100051.59
2023-02-18T14:50:52.871Z,100054.84
2023-02-18T14:53:25.884Z,100055.09
2023-02-18T14:55:58.807Z,100053.75
2023-02-18T14:58:31.444Z,100054.66
2023-02-18T15:00:59.606Z,100056.91
2023-02-18T15:03:28.153Z,100058.13
2023-02-18T15:05:55.664Z,100061.00
2023-02-18T15:08:25.768Z,100072.59
2023-02-18T15:10:58.376Z,100058.81
2023-02-18T15:13:29.213Z,100067.75
2023-02-18T15:16:01.134Z,100055.47
2023-02-18T15:18:32.353Z,100065.69
2023-02-18T15:21:02.201Z,100060.16
2023-02-18T15:23:32.638Z,100059.91
2023-02-18T15:26:00.286Z,100064.19
2023-02-18T15:28:30.040Z,100052.69
2023-02-18T15:30:59.081Z,100056.94
2023-02-18T15:33:27.232Z,100064.16
2023-02-18T15:36:02.091Z,100067.88
2023-02-18T15:38:32.058Z,100061.34
2023-02-18T15:41:00.720Z,100067.97
2023-02-18T15:43:28.290Z,100068.28
2023-02-18T15:45:57.855Z,100075.56
2023-02-18T15:48:33.400Z,100069.72
2023-02-18T15:51:15.766Z,100073.50
2023-02-18T15:53:49.098Z,100072.88
2023-02-18T15:56:22.029Z,100079.88
2023-02-18T15:58:49.542Z,100081.97
2023-02-18T16:01:27.722Z,100076.69
2023-02-18T16:03:56.226Z,100081.66
2023-02-18T16:06:26.228Z,100082.84
2023-02-18T16:09:00.373Z,100074.81
2023-02-18T16:11:33.515Z,100080.13
2023-02-18T16:14:01.250Z,100084.28
2023-02-18T16:16:33.329Z,100071.81
2023-02-18T16:19:01.440Z,100085.25
2023-02-18T16:21:34.350Z,100086.72
2023-02-18T16:24:22.564Z,100081.81
2023-02-18T16:26:52.149Z,100083.31
2023-02-18T16:29:25.237Z,100082.53
2023-02-18T16:31:52.833Z,100092.53
2023-02-18T16:34:20.404Z,100098.81
2023-02-18T16:37:01.891Z,100091.56
2023-02-18T16:39:34.697Z,100093.03
2023-02-18T16:42:02.169Z,100095.84
2023-02-18T16:44:29.765Z,100094.00
2023-02-18T16:46:57.921Z,100091.13
2023-02-18T16:49:25.475Z,100086.66
2023-02-18T16:51:53.022Z,100090.31
2023-02-18T16:54:20.526Z,100089.78
2023-02-18T16:56:49.430Z,100088.91
2023-02-18T16:59:16.913Z,100094.53
2023-02-18T17:01:46.194Z,100089.41
2023-02-18T17:04:16.415Z,100091.41
2023-02-18T17:06:45.003Z,100090.94
2023-02-18T17:09:16.821Z,100101.72
2023-02-18T17:11:45.627Z,100112.66
2023-02-18T17:14:17.836Z,100102.09
2023-02-18T17:16:45.358Z,100108.50
2023-02-18T17:19:12.945Z,100105.88
2023-02-18T17:21:40.495Z,100107.03
2023-02-18T17:24:12.253Z,100107.84
2023-02-18T17:26:39.910Z,100109.84
2023-02-18T17:29:07.745Z,100107.59
2023-02-18T17:31:41.352Z,100105.56
2023-02-18T17:34:13.630Z,100113.88
2023-02-18T17:36:45.261Z,100112.78
2023-02-18T17:39:15.116Z,100118.50
2023-02-18T17:41:42.775Z,100119.53
2023-02-18T17:44:15.892Z,100117.03
2023-02-18T17:46:45.080Z,100124.34
2023-02-18T17:49:12.668Z,100118.50
2023-02-18T17:51:40.246Z,100114.75
2023-02-18T17:54:13.243Z,100119.22
2023-02-18T17:56:40.969Z,100110.22
2023-02-18T17:59:08.491Z,100111.91
2023-02-18T18:01:36.546Z,100105.41
2023-02-18T18:04:07.144Z,100099.72
2023-02-18T18:06:35.964Z,100112.75
2023-02-18T18:09:03.493Z,100106.56
2023-02-18T18:11:31.022Z,100105.97
2023-02-18T18:13:59.585Z,100110.81
2023-02-18T18:16:27.299Z,100102.41
2023-02-18T18:18:54.943Z,100102.81
2023-02-18T18:21:29.042Z,100101.72
2023-02-18T18:23:56.545Z,100109.75
2023-02-18T18:26:24.060Z,100101.78
2023-02-18T18:28:51.565Z,100101.94
2023-02-18T18:31:20.361Z,100101.28
2023-02-18T18:33:51.188Z,100103.66
2023-02-18T18:36:20.444Z,100104.38
2023-02-18T18:38:49.267Z,100098.59
2023-02-18T18:41:18.546Z,100095.00
2023-02-18T18:43:46.447Z,100101.44
2023-02-18T18:46:14.395Z,100098.91
2023-02-18T18:48:42.090Z,100106.03
2023-02-18T18:51:15.860Z,100095.31
2023-02-18T18:53:43.631Z,100098.44
2023-02-18T18:56:13.336Z,100102.91
2023-02-18T18:58:40.914Z,100105.44
2023-02-18T19:01:15.824Z,100097.66
2023-02-18T19:03:43.402Z,100094.78
2023-02-18T19:06:11.150Z,100091.13
2023-02-18T19:08:38.887Z,100083.34
2023-02-18T19:11:06.901Z,100088.19
2023-02-18T19:13:36.134Z,100085.66
2023-02-18T19:16:06.974Z,100078.84
2023-02-18T19:18:35.224Z,100096.94
2023-02-18T19:21:03.426Z,100078.56
2023-02-18T19:23:31.284Z,100080.31
2023-02-18T19:25:59.189Z,100073.75
2023-02-18T19:28:27.046Z,100081.69
2023-02-18T19:30:55.946Z,100070.69
2023-02-18T19:33:23.618Z,100070.56
2023-02-18T19:35:51.118Z,100075.75
2023-02-18T19:38:19.596Z,100077.81
2023-02-18T19:40:48.040Z,100071.03
2023-02-18T19:43:15.776Z,100069.59
2023-02-18T19:45:44.504Z,100076.41
2023-02-18T19:48:14.183Z,100070.56
2023-02-18T19:50:42.520Z,100080.47
2023-02-18T19:53:10.877Z,100073.38
2023-02-18T19:55:38.436Z,100085.94
2023-02-18T19:58:05.960Z,100065.38
2023-02-18T20:00:33.496Z,100056.38
2023-02-18T20:03:01.022Z,100059.91
2023-02-18T20:05:29.876Z,100060.19
2023-02-18T20:07:57.375Z,100058.13
2023-02-18T20:10:25.197Z,100052.50
2023-02-18T20:12:53.763Z,100054.19
2023-02-18T20:15:21.831Z,100060.31
2023-02-18T20:17:49.398Z,100065.78
2023-02-18T20:20:17.296Z,100046.84
2023-02-18T20:22:46.234Z,100055.69
2023-02-18T20:25:13.760Z,100046.59
2023-02-18T20:27:58.221Z,100055.63
2023-02-18T20:30:27.714Z,100049.47
2023-02-18T20:32:55.212Z,100048.16
2023-02-18T20:35:22.661Z,100044.47
2023-02-18T20:37:51.536Z,100047.13
2023-02-18T20:40:21.495Z,100044.28
2023-02-18T20:42:49.570Z,100048.66
2023-02-18T20:45:17.339Z,100027.41
2023-02-18T20:50:12.402Z,100028.41
2023-02-18T20:52:40.469Z,100029.03
2023-02-18T20:55:09.374Z,100012.34
2023-02-18T20:57:36.908Z,100024.47
2023-02-18T21:00:05.214Z,100030.53
2023-02-18T21:02:32.721Z,100032.69
2023-02-18T21:05:00.196Z,100032.22
2023-02-18T21:07:27.729Z,100025.91
2023-02-18T21:09:55.224Z,100022.78
2023-02-18T21:12:24.087Z,100024.00
2023-02-18T21:14:51.623Z,100023.53
2023-02-18T21:17:19.263Z,100015.66
2023-02-18T21:19:46.765Z,100015.38
2023-02-18T21:22:14.632Z,100017.94
2023-02-18T21:24:42.157Z,100008.97
2023-02-18T21:27:09.736Z,100001.59
2023-02-18T21:29:38.594Z,100004.13
2023-02-18T21:32:07.613Z,100003.88
2023-02-18T21:34:35.125Z,99997.03
2023-02-18T21:37:02.632Z,99996.44
2023-02-18T21:39:30.115Z,99993.13
2023-02-18T21:41:59.708Z,100005.63
2023-02-18T21:44:40.152Z,99999.03
2023-02-18T21:47:10.285Z,100013.16
2023-02-18T21:49:37.885Z,100007.75
2023-02-18T21:52:09.082Z,100010.50
2023-02-18T21:54:39.668Z,100003.16
2023-02-18T21:57:09.276Z,100004.63
2023-02-18T21:59:36.932Z,100009.41
2023-02-18T22:02:05.931Z,100004.50
2023-02-18T22:04:37.188Z,100005.53
2023-02-18T22:07:05.150Z,100009.66
2023-02-18T22:09:32.681Z,100004.59
2023-02-18T22:12:00.242Z,100006.63
2023-02-18T22:14:27.885Z,100002.78
2023-02-18T22:16:55.434Z,100003.16
2023-02-18T22:19:23.163Z,99991.63
2023-02-18T22:21:52.082Z,99994.03
2023-02-18T22:24:20.366Z,99979.03
2023-02-18T22:26:48.886Z,99968.25
2023-02-18T22:29:18.412Z,99966.25
2023-02-18T22:31:46.939Z,99970.53
2023-02-18T22:34:14.522Z,99948.06
2023-02-18T22:36:42.515Z,99943.09
2023-02-18T22:39:12.374Z,99947.53
2023-02-18T22:41:40.436Z,99938.44
2023-02-18T22:44:10.034Z,99952.34
2023-02-18T22:46:38.665Z,99931.56
2023-02-18T22:49:07.750Z,99927.50
2023-02-18T22:51:38.321Z,99934.88
2023-02-18T22:54:07.282Z,99925.22
2023-02-18T22:56:36.416Z,99920.44
2023-02-18T22:59:04.282Z,99914.47
2023-02-18T23:01:33.711Z,99924.75
2023-02-18T23:04:05.593Z,99925.31
2023-02-18T23:06:33.192Z,99938.78
2023-02-18T23:09:00.877Z,99945.28
2023-02-18T23:11:28.626Z,99939.22
2023-02-18T23:14:15.282Z,99936.03
2023-02-18T23:17:15.242Z,99935.13
2023-02-18T23:19:44.716Z,99945.03
2023-02-18T23:22:14.307Z,99937.41
2023-02-18T23:24:44.579Z,99931.22
2023-02-18T23:27:13.863Z,99935.19
2023-02-18T23:29:43.247Z,99939.53
2023-02-18T23:32:10.862Z,99922.53
2023-02-18T23:34:38.672Z,99932.16
2023-02-18T23:37:06.347Z,99920.06
2023-02-18T23:39:34.300Z,99918.38
2023-02-18T23:42:01.793Z,99916.81
2023-02-18T23:44:29.599Z,99916.53
2023-02-18T23:46:58.484Z,99914.38
2023-02-18T23:49:28.640Z,99925.47
2023-02-18T23:51:58.140Z,99913.94
2023-02-18T23:54:26.320Z,99918.75
2023-02-18T23:56:53.759Z,99910.84
2023-02-18T23:59:21.307Z,99911.63
